Time;durP1;ratioP1;P1;durP2;ratioP2;P2;SDS_P1;SDS_P2;PMS_P1;PMS_P2;Temp;Humidity;BMP_temperature;BMP_pressure;BME280_temperature;BME280_humidity;BME280_pressure;Samples;Min_cycle;Max_cycle;Signal;HPM_P1;HPM_P2
2024/01/02 00:02:06;;;;;;;7.10;1.45;;;8.80;99.90;;;;;;5047577;28;20025;-89
2024/01/02 00:04:32;;;;;;;3.38;1.05;;;8.80;99.90;;;;;;5037633;28;20045;-89
2024/01/02 00:06:57;;;;;;;4.93;1.45;;;8.80;99.90;;;;;;5046728;28;20108;-89
2024/01/02 00:09:23;;;;;;;3.40;1.10;;;8.80;99.90;;;;;;5040311;28;20026;-88
2024/01/02 00:11:48;;;;;;;2.22;1.35;;;8.80;99.90;;;;;;5044143;28;20021;-88
2024/01/02 00:14:14;;;;;;;2.92;1.50;;;8.80;99.90;;;;;;5036886;28;20037;-89
2024/01/02 00:16:39;;;;;;;2.53;1.20;;;8.80;99.90;;;;;;5040451;28;20021;-89
2024/01/02 00:19:05;;;;;;;5.80;1.10;;;8.80;99.90;;;;;;5052679;28;20615;-89
2024/01/02 00:21:30;;;;;;;5.68;1.10;;;8.80;99.90;;;;;;5052298;28;20478;-89
2024/01/02 00:23:57;;;;;;;1.63;1.23;;;8.80;99.90;;;;;;5043327;28;20025;-87
2024/01/02 00:26:23;;;;;;;2.30;1.52;;;8.80;99.90;;;;;;5040018;28;20083;-88
2024/01/02 00:28:48;;;;;;;3.13;1.35;;;8.80;99.90;;;;;;5048169;28;20495;-89
2024/01/02 00:31:14;;;;;;;1.00;0.90;;;8.80;99.90;;;;;;5041179;28;20033;-88
2024/01/02 00:33:40;;;;;;;4.80;1.17;;;8.80;99.90;;;;;;5047456;28;20074;-88
2024/01/02 00:36:10;;;;;;;3.40;1.17;;;8.80;99.90;;;;;;5039852;28;20391;-89
2024/01/02 00:38:35;;;;;;;3.20;1.38;;;8.80;99.90;;;;;;5050927;28;20051;-88
2024/01/02 00:41:01;;;;;;;5.05;1.92;;;8.80;99.90;;;;;;5043035;28;20517;-89
2024/01/02 00:43:27;;;;;;;2.63;1.02;;;8.80;99.90;;;;;;5053611;28;20505;-89
2024/01/02 00:45:53;;;;;;;3.70;1.48;;;8.80;99.90;;;;;;5051035;28;20532;-89
2024/01/02 00:48:18;;;;;;;4.35;1.10;;;8.80;99.90;;;;;;5047591;28;20029;-88
2024/01/02 00:50:44;;;;;;;5.05;1.33;;;8.80;99.90;;;;;;5048630;28;20482;-89
2024/01/02 00:53:09;;;;;;;2.00;1.08;;;8.80;99.90;;;;;;5048833;28;20545;-89
2024/01/02 00:55:35;;;;;;;4.88;1.52;;;8.80;99.90;;;;;;5041502;28;20502;-89
2024/01/02 00:58:00;;;;;;;2.70;1.13;;;8.80;99.90;;;;;;5046823;28;20021;-89
2024/01/02 01:00:26;;;;;;;3.92;1.00;;;8.80;99.90;;;;;;5045721;28;20021;-88
2024/01/02 01:02:51;;;;;;;5.55;2.00;;;8.80;99.90;;;;;;5046960;28;20058;-89
2024/01/02 01:05:17;;;;;;;4.28;1.40;;;8.80;99.90;;;;;;5047486;28;20029;-89
2024/01/02 01:07:43;;;;;;;4.30;1.60;;;8.80;99.90;;;;;;5048046;28;20453;-88
2024/01/02 01:10:09;;;;;;;2.75;1.45;;;8.80;99.90;;;;;;5040882;28;20029;-90
2024/01/02 01:12:36;;;;;;;2.83;1.20;;;8.80;99.90;;;;;;5037635;28;20056;-89
2024/01/02 01:15:02;;;;;;;1.10;0.90;;;8.80;99.90;;;;;;5055687;28;20025;-88
2024/01/02 01:17:27;;;;;;;4.13;1.20;;;8.80;99.90;;;;;;5047244;28;20021;-90
2024/01/02 01:19:53;;;;;;;3.63;1.27;;;8.80;99.90;;;;;;5049984;28;20108;-89
2024/01/02 01:22:18;;;;;;;7.65;1.27;;;8.70;99.90;;;;;;5048650;28;20402;-90
2024/01/02 01:24:44;;;;;;;6.30;1.27;;;8.80;99.90;;;;;;5045035;28;20435;-89
2024/01/02 01:27:09;;;;;;;8.32;1.60;;;8.80;99.90;;;;;;5050823;28;20021;-90
2024/01/02 01:29:35;;;;;;;7.28;1.17;;;8.80;99.90;;;;;;5047834;28;20018;-88
2024/01/02 01:32:01;;;;;;;2.92;1.20;;;8.80;99.90;;;;;;5051871;28;20482;-89
2024/01/02 01:34:26;;;;;;;6.47;1.52;;;8.80;99.90;;;;;;5048745;28;20509;-87
2024/01/02 01:36:54;;;;;;;4.88;1.20;;;8.80;99.90;;;;;;5043124;28;20033;-88
2024/01/02 01:39:19;;;;;;;3.80;1.30;;;8.70;99.90;;;;;;5039055;28;20515;-88
2024/01/02 01:41:45;;;;;;;2.95;1.75;;;8.70;99.90;;;;;;5042585;28;20026;-89
2024/01/02 01:44:10;;;;;;;5.93;1.40;;;8.80;99.90;;;;;;5051790;28;20017;-88
2024/01/02 01:46:37;;;;;;;3.38;1.00;;;8.80;99.90;;;;;;5047062;28;20025;-88
2024/01/02 01:49:05;;;;;;;3.25;1.25;;;8.70;99.90;;;;;;5047464;28;20020;-89
2024/01/02 01:51:32;;;;;;;3.28;1.13;;;8.80;99.90;;;;;;5045010;28;20052;-89
2024/01/02 01:54:02;;;;;;;2.08;1.33;;;8.80;99.90;;;;;;5052164;28;20021;-89
2024/01/02 01:56:29;;;;;;;4.72;1.20;;;8.80;99.90;;;;;;5044680;28;20120;-88
2024/01/02 01:58:55;;;;;;;8.93;1.80;;;8.80;99.90;;;;;;5046121;28;20018;-89
2024/01/02 02:01:22;;;;;;;5.15;1.48;;;8.80;99.90;;;;;;5040485;28;20025;-88
2024/01/02 02:03:48;;;;;;;5.45;1.20;;;8.70;99.90;;;;;;5040107;28;20029;-89
2024/01/02 02:06:15;;;;;;;3.25;1.25;;;8.70;99.90;;;;;;5052305;28;20017;-89
2024/01/02 02:08:41;;;;;;;3.97;1.27;;;8.80;99.90;;;;;;5044578;28;20028;-89
2024/01/02 02:11:07;;;;;;;2.70;1.50;;;8.80;99.90;;;;;;5047149;28;20032;-88
2024/01/02 02:13:32;;;;;;;3.20;1.40;;;8.70;99.90;;;;;;5047111;28;20482;-89
2024/01/02 02:15:58;;;;;;;2.70;1.30;;;8.80;99.90;;;;;;5041191;28;20070;-89
2024/01/02 02:18:24;;;;;;;6.38;1.30;;;8.80;99.90;;;;;;5044094;28;20017;-90
2024/01/02 02:20:49;;;;;;;8.48;1.67;;;8.70;99.90;;;;;;5039791;28;20023;-89
2024/01/02 02:23:16;;;;;;;1.38;1.00;;;8.70;99.90;;;;;;5045966;28;20027;-87
2024/01/02 02:25:41;;;;;;;6.07;1.60;;;8.80;99.90;;;;;;5048150;28;20070;-89
2024/01/02 02:28:07;;;;;;;4.45;1.65;;;8.80;99.90;;;;;;5045709;28;20064;-88
2024/01/02 02:30:33;;;;;;;5.50;1.33;;;8.70;99.90;;;;;;5041581;28;20119;-90
2024/01/02 02:32:58;;;;;;;8.10;1.60;;;8.80;99.90;;;;;;5034107;28;20021;-89
2024/01/02 02:35:24;;;;;;;2.47;1.20;;;8.70;99.90;;;;;;5039814;28;20022;-89
2024/01/02 02:37:49;;;;;;;8.82;1.05;;;8.80;99.90;;;;;;5041851;28;20475;-89
2024/01/02 02:40:15;;;;;;;1.45;0.90;;;8.80;99.90;;;;;;5040282;28;20471;-89
2024/01/02 02:42:40;;;;;;;3.60;1.45;;;8.80;99.90;;;;;;5040261;28;20075;-89
2024/01/02 02:45:06;;;;;;;2.50;0.82;;;8.80;99.90;;;;;;5038796;28;20426;-89
2024/01/02 02:47:32;;;;;;;2.25;1.10;;;8.80;99.90;;;;;;5040629;28;20103;-89
2024/01/02 02:49:57;;;;;;;1.40;1.05;;;8.80;99.90;;;;;;5038189;28;20371;-89
2024/01/02 02:52:23;;;;;;;3.30;1.10;;;8.80;99.90;;;;;;5051032;28;20027;-88
2024/01/02 02:54:48;;;;;;;1.73;1.10;;;8.80;99.90;;;;;;5040256;28;20025;-90
2024/01/02 02:57:14;;;;;;;4.18;1.88;;;8.80;99.90;;;;;;5042628;28;20515;-88
2024/01/02 02:59:40;;;;;;;3.47;1.33;;;8.80;99.90;;;;;;5039930;28;20498;-90
2024/01/02 03:02:05;;;;;;;1.25;1.00;;;8.80;99.90;;;;;;5049406;28;20021;-89
2024/01/02 03:04:31;;;;;;;2.53;1.42;;;8.80;99.90;;;;;;5046856;28;20024;-89
2024/01/02 03:06:56;;;;;;;1.13;1.02;;;8.70;99.90;;;;;;5050503;28;20031;-89
2024/01/02 03:09:22;;;;;;;1.45;1.00;;;8.70;99.90;;;;;;5047619;28;20085;-89
2024/01/02 03:11:48;;;;;;;3.53;1.30;;;8.70;99.90;;;;;;5049152;28;20078;-88
2024/01/02 03:14:14;;;;;;;4.15;1.50;;;8.70;99.90;;;;;;5045268;28;20029;-90
2024/01/02 03:16:41;;;;;;;2.22;1.30;;;8.80;99.90;;;;;;5048507;28;20017;-89
2024/01/02 03:19:07;;;;;;;2.15;1.00;;;8.80;99.90;;;;;;5049994;28;20097;-88
2024/01/02 03:21:32;;;;;;;3.20;1.20;;;8.80;99.90;;;;;;5050780;28;20095;-88
2024/01/02 03:23:58;;;;;;;5.25;1.20;;;8.80;99.90;;;;;;5046761;28;20552;-89
2024/01/02 03:26:24;;;;;;;3.53;1.20;;;8.80;99.90;;;;;;5038022;28;20035;-88
2024/01/02 03:28:50;;;;;;;1.83;1.15;;;8.70;99.90;;;;;;5037788;28;20105;-89
2024/01/02 03:31:16;;;;;;;1.88;0.90;;;8.70;99.90;;;;;;5035194;28;20029;-88
2024/01/02 03:33:41;;;;;;;1.73;1.00;;;8.80;99.90;;;;;;5047165;28;20025;-89
2024/01/02 03:36:18;;;;;;;7.55;1.85;;;8.70;99.90;;;;;;5049428;28;20070;-88
2024/01/02 03:38:49;;;;;;;3.38;1.10;;;8.80;99.90;;;;;;5046165;28;20029;-89
2024/01/02 03:41:15;;;;;;;4.88;1.25;;;8.80;99.90;;;;;;5039527;28;20051;-88
2024/01/02 03:43:40;;;;;;;1.95;1.08;;;8.80;99.90;;;;;;5045808;28;20280;-89
2024/01/02 03:46:07;;;;;;;5.50;1.40;;;8.70;99.90;;;;;;5044060;28;20060;-89
2024/01/02 03:48:33;;;;;;;1.90;1.38;;;8.70;99.90;;;;;;5043007;28;20156;-88
2024/01/02 03:51:00;;;;;;;3.10;1.77;;;8.80;99.90;;;;;;5047525;28;20596;-89
2024/01/02 03:53:26;;;;;;;3.60;1.85;;;8.80;99.90;;;;;;5047778;28;20094;-88
2024/01/02 03:55:52;;;;;;;6.53;1.10;;;8.70;99.90;;;;;;5043624;28;20424;-88
2024/01/02 03:58:17;;;;;;;3.00;1.10;;;8.80;99.90;;;;;;5042313;28;20025;-89
2024/01/02 04:00:43;;;;;;;2.33;1.20;;;8.80;99.90;;;;;;5046306;28;20017;-89
2024/01/02 04:03:09;;;;;;;1.33;1.02;;;8.70;99.90;;;;;;5045630;28;20060;-89
2024/01/02 04:05:35;;;;;;;2.33;1.00;;;8.70;99.90;;;;;;5044794;28;20021;-89
2024/01/02 04:08:01;;;;;;;2.08;0.88;;;8.70;99.90;;;;;;5039999;28;20041;-89
2024/01/02 04:10:26;;;;;;;2.33;1.00;;;8.70;99.90;;;;;;5034694;28;20100;-89
2024/01/02 04:12:52;;;;;;;6.95;1.10;;;8.70;99.90;;;;;;5041158;28;20052;-88
2024/01/02 04:15:17;;;;;;;1.65;1.23;;;8.70;99.90;;;;;;5048500;28;20022;-89
2024/01/02 04:17:43;;;;;;;1.85;1.30;;;8.70;99.90;;;;;;5041018;28;20074;-88
2024/01/02 04:20:09;;;;;;;1.60;1.10;;;8.70;99.90;;;;;;5044033;28;20033;-91
2024/01/02 04:22:34;;;;;;;2.20;0.98;;;8.70;99.90;;;;;;5041272;28;20071;-88
2024/01/02 04:25:00;;;;;;;3.10;0.95;;;8.70;99.90;;;;;;5039107;28;20052;-88
2024/01/02 04:27:25;;;;;;;3.50;0.98;;;8.70;99.90;;;;;;5046747;28;20060;-90
2024/01/02 04:29:51;;;;;;;4.95;1.38;;;8.70;99.90;;;;;;5038339;28;20120;-90
2024/01/02 04:32:16;;;;;;;1.45;1.00;;;8.70;99.90;;;;;;5041469;28;20536;-88
2024/01/02 04:34:42;;;;;;;5.00;1.23;;;8.70;99.90;;;;;;5039548;28;20021;-90
2024/01/02 04:37:08;;;;;;;4.75;1.23;;;8.70;99.90;;;;;;5043245;28;20032;-89
2024/01/02 04:39:33;;;;;;;3.47;1.67;;;8.80;99.90;;;;;;5048733;28;20044;-89
2024/01/02 04:42:01;;;;;;;2.25;1.20;;;8.70;99.90;;;;;;5042009;28;20076;-89
2024/01/02 04:44:26;;;;;;;3.13;1.15;;;8.70;99.90;;;;;;5035045;28;20017;-89
2024/01/02 04:46:52;;;;;;;1.35;0.80;;;8.70;99.90;;;;;;5035179;28;20048;-88
2024/01/02 04:49:18;;;;;;;2.10;0.90;;;8.70;99.90;;;;;;5047680;28;20017;-89
2024/01/02 04:51:44;;;;;;;4.10;1.38;;;8.70;99.90;;;;;;5049446;28;20020;-88
2024/01/02 04:54:09;;;;;;;3.47;1.10;;;8.70;99.90;;;;;;5047912;28;20104;-89
2024/01/02 04:56:35;;;;;;;1.58;0.95;;;8.70;99.90;;;;;;5039551;28;20017;-88
2024/01/02 04:59:00;;;;;;;3.63;1.13;;;8.70;99.90;;;;;;5037613;28;20112;-90
2024/01/02 05:01:26;;;;;;;5.28;1.23;;;8.70;99.90;;;;;;5048223;28;20313;-89
2024/01/02 05:03:51;;;;;;;2.55;1.10;;;8.70;99.90;;;;;;5043191;28;20064;-88
2024/01/02 05:06:17;;;;;;;3.20;1.10;;;8.70;99.90;;;;;;5043418;28;20052;-89
2024/01/02 05:08:43;;;;;;;0.90;0.80;;;8.70;99.90;;;;;;5037628;28;20027;-90
2024/01/02 05:11:08;;;;;;;1.17;1.00;;;8.70;99.90;;;;;;5041831;28;20530;-89
2024/01/02 05:13:34;;;;;;;2.50;1.13;;;8.70;99.90;;;;;;5051808;28;20430;-88
2024/01/02 05:16:00;;;;;;;4.68;0.98;;;8.70;99.90;;;;;;5049334;28;20512;-90
2024/01/02 05:18:25;;;;;;;1.00;0.75;;;8.70;99.90;;;;;;5049179;28;20021;-89
2024/01/02 05:20:51;;;;;;;3.20;1.00;;;8.70;99.90;;;;;;5045787;28;20021;-89
2024/01/02 05:23:16;;;;;;;1.67;0.90;;;8.70;99.90;;;;;;5047995;28;20510;-89
2024/01/02 05:25:42;;;;;;;1.30;1.02;;;8.70;99.90;;;;;;5052790;28;20029;-89
2024/01/02 05:28:08;;;;;;;2.53;0.90;;;8.70;99.90;;;;;;5043555;28;20051;-89
2024/01/02 05:30:33;;;;;;;1.73;0.70;;;8.70;99.90;;;;;;5040255;28;20434;-89
2024/01/02 05:32:59;;;;;;;1.17;0.75;;;8.70;99.90;;;;;;5046771;28;20154;-89
2024/01/02 05:35:24;;;;;;;1.88;0.70;;;8.70;99.90;;;;;;5052987;28;20685;-88
2024/01/02 05:37:50;;;;;;;2.10;0.90;;;8.70;99.90;;;;;;5041554;28;20037;-89
2024/01/02 05:40:15;;;;;;;0.75;0.75;;;8.60;99.90;;;;;;5045984;28;20032;-89
2024/01/02 05:42:41;;;;;;;0.85;0.80;;;8.70;99.90;;;;;;5041918;28;20031;-90
2024/01/02 05:45:07;;;;;;;2.33;0.80;;;8.70;99.90;;;;;;5045923;28;20028;-89
2024/01/02 05:47:33;;;;;;;3.80;0.82;;;8.60;99.90;;;;;;5046113;28;20449;-89
2024/01/02 05:49:58;;;;;;;2.78;1.38;;;8.60;99.90;;;;;;5051808;28;20025;-89
2024/01/02 05:52:24;;;;;;;1.88;0.60;;;8.60;99.90;;;;;;5047400;28;20018;-89
2024/01/02 05:54:49;;;;;;;1.38;0.90;;;8.60;99.90;;;;;;5033485;28;20036;-90
2024/01/02 05:57:15;;;;;;;2.35;0.60;;;8.70;99.90;;;;;;5056670;28;20740;-88
2024/01/02 05:59:40;;;;;;;1.00;0.90;;;8.70;99.90;;;;;;5039175;28;20386;-89
2024/01/02 06:02:06;;;;;;;0.65;0.65;;;8.70;99.90;;;;;;5042689;28;20403;-88
2024/01/02 06:04:31;;;;;;;1.70;0.70;;;8.70;99.90;;;;;;5050715;28;20029;-89
2024/01/02 06:06:57;;;;;;;2.50;0.60;;;8.70;99.90;;;;;;5047819;28;20037;-88
2024/01/02 06:09:23;;;;;;;0.60;0.60;;;8.70;99.90;;;;;;5047414;28;20575;-89
2024/01/02 06:11:49;;;;;;;1.95;0.55;;;8.70;99.90;;;;;;5043273;28;20104;-88
2024/01/02 06:14:15;;;;;;;0.70;0.70;;;8.70;99.90;;;;;;5044337;28;20159;-89
2024/01/02 06:16:41;;;;;;;0.65;0.65;;;8.70;99.90;;;;;;5041034;28;20021;-89
2024/01/02 06:19:07;;;;;;;1.88;0.80;;;8.60;99.90;;;;;;5042975;28;20036;-89
2024/01/02 06:21:32;;;;;;;5.40;0.77;;;8.70;99.90;;;;;;5042246;28;20025;-89
2024/01/02 06:23:58;;;;;;;3.63;1.08;;;8.60;99.90;;;;;;5050025;28;20029;-89
2024/01/02 06:26:23;;;;;;;0.70;0.70;;;8.60;99.90;;;;;;5046142;28;20025;-89
2024/01/02 06:28:49;;;;;;;1.92;0.80;;;8.60;99.90;;;;;;5043467;28;20028;-89
2024/01/02 06:31:15;;;;;;;0.57;0.57;;;8.60;99.90;;;;;;5041764;28;20395;-88
2024/01/02 06:33:44;;;;;;;1.13;0.82;;;8.60;99.90;;;;;;5044480;28;20029;-90
2024/01/02 06:36:13;;;;;;;0.98;0.85;;;8.60;99.90;;;;;;5044447;28;20021;-89
2024/01/02 06:38:38;;;;;;;2.20;0.77;;;8.60;99.90;;;;;;5040150;28;20017;-89
2024/01/02 06:41:04;;;;;;;3.33;0.90;;;8.70;99.90;;;;;;5040934;28;20033;-89
2024/01/02 06:43:30;;;;;;;1.58;0.88;;;8.70;99.90;;;;;;5041556;28;20104;-90
2024/01/02 06:45:56;;;;;;;2.25;0.70;;;8.70;99.90;;;;;;5043486;28;20029;-88
2024/01/02 06:48:21;;;;;;;0.88;0.80;;;8.60;99.90;;;;;;5035419;28;20536;-89
2024/01/02 06:50:47;;;;;;;1.88;0.63;;;8.60;99.90;;;;;;5044186;28;20025;-87
2024/01/02 06:53:13;;;;;;;1.08;0.63;;;8.60;99.90;;;;;;5046682;28;20034;-88
2024/01/02 06:55:39;;;;;;;1.60;0.90;;;8.60;99.90;;;;;;5041943;28;20084;-89
2024/01/02 06:58:04;;;;;;;1.50;0.80;;;8.60;99.90;;;;;;5039167;28;20104;-89
2024/01/02 07:00:32;;;;;;;2.05;0.77;;;8.60;99.90;;;;;;5041790;28;20021;-89
2024/01/02 07:02:59;;;;;;;0.65;0.65;;;8.60;99.90;;;;;;5044974;28;20017;-90
2024/01/02 07:05:24;;;;;;;2.10;1.02;;;8.60;99.90;;;;;;5042998;28;20087;-89
2024/01/02 07:07:50;;;;;;;0.90;0.70;;;8.60;99.90;;;;;;5043399;28;20479;-90
2024/01/02 07:10:15;;;;;;;1.80;0.57;;;8.60;99.90;;;;;;5045775;28;20784;-90
2024/01/02 07:12:41;;;;;;;0.70;0.70;;;8.60;99.90;;;;;;5050665;28;20017;-90
2024/01/02 07:15:07;;;;;;;2.63;0.77;;;8.60;99.90;;;;;;5036670;28;20033;-90
2024/01/02 07:17:33;;;;;;;2.53;0.90;;;8.60;99.90;;;;;;5045405;28;20017;-88
2024/01/02 07:19:59;;;;;;;2.03;0.82;;;8.70;99.90;;;;;;5039650;28;20032;-89
2024/01/02 07:22:26;;;;;;;1.80;1.05;;;8.70;99.90;;;;;;5046515;28;20024;-89
2024/01/02 07:24:52;;;;;;;3.30;1.00;;;8.60;99.90;;;;;;5041334;28;20021;-89
2024/01/02 07:27:18;;;;;;;1.25;0.77;;;8.60;99.90;;;;;;5042069;28;20628;-89
2024/01/02 07:29:43;;;;;;;0.70;0.60;;;8.60;99.90;;;;;;5033995;28;20021;-88
2024/01/02 07:32:09;;;;;;;1.02;0.70;;;8.60;99.90;;;;;;5048800;28;20060;-89
2024/01/02 07:34:34;;;;;;;1.40;0.60;;;8.70;99.90;;;;;;5052904;28;20029;-88
2024/01/02 07:37:00;;;;;;;1.05;0.60;;;8.60;99.90;;;;;;5042476;28;20079;-90
2024/01/02 07:39:26;;;;;;;0.80;0.80;;;8.70;99.90;;;;;;5034888;28;20018;-89
2024/01/02 07:41:52;;;;;;;0.77;0.77;;;8.70;99.90;;;;;;5046721;28;20390;-90
2024/01/02 07:44:17;;;;;;;0.98;0.80;;;8.70;99.90;;;;;;5041018;28;20029;-89
2024/01/02 07:46:43;;;;;;;2.97;0.80;;;8.60;99.90;;;;;;5041717;28;20078;-90
2024/01/02 07:49:09;;;;;;;0.90;0.77;;;8.70;99.90;;;;;;5047670;28;20064;-90
2024/01/02 07:51:35;;;;;;;2.40;0.88;;;8.70;99.90;;;;;;5037201;28;20059;-89
2024/01/02 07:54:01;;;;;;;0.57;0.57;;;8.70;99.90;;;;;;5046891;28;20096;-89
2024/01/02 07:56:26;;;;;;;1.83;0.77;;;8.70;99.90;;;;;;5039457;28;20059;-89
2024/01/02 07:58:52;;;;;;;1.17;0.60;;;8.70;99.90;;;;;;5040597;28;20028;-89
2024/01/02 08:01:18;;;;;;;0.60;0.60;;;8.70;99.90;;;;;;5042704;28;20021;-90
2024/01/02 08:03:44;;;;;;;1.23;0.85;;;9.40;99.90;;;;;;5039206;28;20418;-88
2024/01/02 08:06:09;;;;;;;0.88;0.85;;;9.10;99.90;;;;;;5039810;28;20029;-90
2024/01/02 08:08:35;;;;;;;0.80;0.68;;;8.90;99.90;;;;;;5036399;28;20021;-89
2024/01/02 08:11:01;;;;;;;1.88;0.63;;;8.80;99.90;;;;;;5046966;28;20029;-90
2024/01/02 08:13:26;;;;;;;0.60;0.60;;;8.70;99.90;;;;;;5039355;28;20048;-90
2024/01/02 08:15:52;;;;;;;0.65;0.60;;;8.70;99.90;;;;;;5034228;28;20018;-91
2024/01/02 08:18:18;;;;;;;3.53;0.65;;;8.70;99.90;;;;;;5037277;28;20026;-90
2024/01/02 08:20:43;;;;;;;1.33;0.73;;;8.70;99.90;;;;;;5048625;28;20052;-91
2024/01/02 08:23:09;;;;;;;0.95;0.70;;;8.70;99.90;;;;;;5040466;28;20064;-91
2024/01/02 08:25:35;;;;;;;3.05;0.63;;;8.70;99.90;;;;;;5038403;28;20552;-91
2024/01/02 08:28:01;;;;;;;2.78;0.95;;;8.70;99.90;;;;;;5046681;28;20096;-90
2024/01/02 08:30:26;;;;;;;3.83;0.70;;;8.70;99.90;;;;;;5045713;28;20060;-90
2024/01/02 08:32:52;;;;;;;0.60;0.60;;;8.70;99.90;;;;;;5042332;28;20068;-90
2024/01/02 08:35:17;;;;;;;1.17;0.60;;;8.70;99.90;;;;;;5031347;28;20017;-91
2024/01/02 08:37:44;;;;;;;0.63;0.60;;;8.70;99.90;;;;;;5038904;28;20017;-90
2024/01/02 08:40:11;;;;;;;0.77;0.77;;;8.70;99.90;;;;;;5055136;28;20025;-91
2024/01/02 08:42:37;;;;;;;0.50;0.50;;;8.70;99.90;;;;;;5061022;28;20253;-91
2024/01/02 08:45:03;;;;;;;0.60;0.60;;;8.70;99.90;;;;;;5058793;28;20030;-89
2024/01/02 08:47:29;;;;;;;1.33;0.70;;;8.70;99.90;;;;;;5047109;28;20492;-91
2024/01/02 08:49:54;;;;;;;1.02;0.60;;;8.70;99.90;;;;;;5046851;28;20043;-89
2024/01/02 08:52:20;;;;;;;0.50;0.50;;;8.70;99.90;;;;;;5047088;28;20048;-89
2024/01/02 08:54:46;;;;;;;1.17;0.65;;;8.70;99.90;;;;;;5037120;28;20017;-91
2024/01/02 08:57:11;;;;;;;0.70;0.60;;;8.70;99.90;;;;;;5052083;28;20505;-91
2024/01/02 08:59:37;;;;;;;0.85;0.60;;;8.70;99.90;;;;;;5051868;28;20025;-89
2024/01/02 09:02:02;;;;;;;0.55;0.55;;;8.70;99.90;;;;;;5054356;28;20483;-90
2024/01/02 09:04:28;;;;;;;0.50;0.50;;;8.70;99.90;;;;;;5036545;28;20022;-90
2024/01/02 09:06:54;;;;;;;1.13;0.60;;;8.70;99.90;;;;;;5050122;28;20028;-90
2024/01/02 09:09:19;;;;;;;0.73;0.60;;;8.70;99.90;;;;;;5038321;28;20040;-90
2024/01/02 09:11:46;;;;;;;0.60;0.60;;;8.70;99.90;;;;;;5046956;28;20104;-90
2024/01/02 09:14:11;;;;;;;3.05;0.60;;;8.70;99.90;;;;;;5053345;28;20025;-90
2024/01/02 09:16:38;;;;;;;0.95;0.70;;;8.70;99.90;;;;;;5035472;28;20494;-89
2024/01/02 09:19:04;;;;;;;3.10;0.90;;;8.70;99.90;;;;;;5053372;28;20026;-91
2024/01/02 09:21:30;;;;;;;1.70;0.90;;;8.70;99.90;;;;;;5038456;28;20543;-89
2024/01/02 09:23:56;;;;;;;1.15;0.77;;;8.70;99.90;;;;;;5044459;28;20488;-89
2024/01/02 09:26:23;;;;;;;1.15;0.70;;;8.70;99.90;;;;;;5037673;28;20036;-91
2024/01/02 09:28:49;;;;;;;1.55;0.70;;;8.70;99.90;;;;;;5048245;28;20042;-89
2024/01/02 09:31:14;;;;;;;1.38;0.50;;;8.70;99.90;;;;;;5042905;28;20041;-90
2024/01/02 09:33:43;;;;;;;0.80;0.50;;;8.70;99.90;;;;;;5057106;28;20119;-90
2024/01/02 09:36:09;;;;;;;2.70;0.70;;;8.70;99.90;;;;;;5034885;28;20014;-90
2024/01/02 09:38:38;;;;;;;0.73;0.40;;;8.70;99.90;;;;;;5039915;28;20024;-90
2024/01/02 09:41:15;;;;;;;0.60;0.60;;;8.70;99.90;;;;;;5039705;28;20048;-91
2024/01/02 09:44:01;;;;;;;1.42;0.60;;;8.70;99.90;;;;;;5040386;28;20029;-89
2024/01/02 09:46:38;;;;;;;0.50;0.50;;;8.70;99.90;;;;;;5039790;28;20030;-90
2024/01/02 09:49:25;;;;;;;0.70;0.65;;;8.80;99.90;;;;;;5052184;28;20025;-89
2024/01/02 09:52:15;;;;;;;0.50;0.50;;;8.70;99.90;;;;;;5049779;28;20080;-87
2024/01/02 09:55:10;;;;;;;2.55;0.60;;;8.70;99.90;;;;;;5047158;28;20032;-91
2024/01/02 09:57:58;;;;;;;0.70;0.40;;;8.70;99.90;;;;;;5042058;28;20104;-89
2024/01/02 10:00:54;;;;;;;0.95;0.60;;;8.70;99.90;;;;;;5043728;28;20486;-88
2024/01/02 10:03:36;;;;;;;0.43;0.43;;;8.70;99.90;;;;;;5038358;28;20076;-89
2024/01/02 10:06:20;;;;;;;2.05;0.82;;;8.70;99.90;;;;;;5046452;28;20096;-90
2024/01/02 10:08:51;;;;;;;1.02;0.57;;;8.70;99.90;;;;;;5043331;28;20510;-87
2024/01/02 10:11:40;;;;;;;0.50;0.50;;;8.70;99.90;;;;;;5050526;28;20379;-90
2024/01/02 10:14:24;;;;;;;0.47;0.47;;;8.80;99.90;;;;;;5044545;28;20044;-89
2024/01/02 10:17:21;;;;;;;0.88;0.60;;;8.80;99.90;;;;;;5042554;28;20013;-91
2024/01/02 10:20:06;;;;;;;1.17;0.70;;;8.70;99.90;;;;;;5043680;28;20234;-90
2024/01/02 10:22:51;;;;;;;2.35;0.82;;;8.80;99.90;;;;;;5047032;28;20027;-89
2024/01/02 10:25:19;;;;;;;0.68;0.60;;;8.70;99.90;;;;;;5049497;28;20021;-90
2024/01/02 10:28:13;;;;;;;2.47;0.95;;;8.80;99.90;;;;;;5049557;28;20490;-89
2024/01/02 10:30:51;;;;;;;1.73;0.70;;;8.80;99.90;;;;;;5053028;28;20052;-90
2024/01/02 10:33:28;;;;;;;3.63;0.80;;;8.80;99.90;;;;;;5037763;28;20037;-91
2024/01/02 10:36:00;;;;;;;1.83;0.90;;;8.80;99.90;;;;;;5045937;28;20021;-89
2024/01/02 10:39:01;;;;;;;1.13;0.60;;;8.80;99.90;;;;;;5042949;28;20017;-90
2024/01/02 10:41:50;;;;;;;2.10;0.80;;;8.80;99.90;;;;;;5050051;28;20174;-89
2024/01/02 10:44:27;;;;;;;1.23;0.60;;;8.80;99.90;;;;;;5044110;28;20029;-90
2024/01/02 10:46:59;;;;;;;1.27;0.98;;;8.80;99.90;;;;;;5040056;28;20075;-89
2024/01/02 10:49:40;;;;;;;0.65;0.65;;;8.80;99.90;;;;;;5033689;28;20108;-89
2024/01/02 10:52:12;;;;;;;1.10;0.60;;;8.80;99.90;;;;;;5052093;28;20044;-90
2024/01/02 10:55:14;;;;;;;0.60;0.60;;;8.80;99.90;;;;;;5051498;28;20029;-90
2024/01/02 10:57:45;;;;;;;1.02;0.60;;;8.80;99.90;;;;;;5038154;28;20024;-91
2024/01/02 11:00:22;;;;;;;0.70;0.63;;;8.80;99.90;;;;;;5046740;28;20102;-90
2024/01/02 11:03:06;;;;;;;1.40;0.60;;;8.80;99.90;;;;;;5051733;28;20017;-90
2024/01/02 11:05:41;;;;;;;1.67;1.00;;;8.80;99.90;;;;;;5049021;28;20025;-89
2024/01/02 11:08:14;;;;;;;2.08;1.08;;;8.90;99.90;;;;;;5043586;28;20020;-89
2024/01/02 11:10:57;;;;;;;1.95;0.93;;;8.80;99.90;;;;;;5051042;28;20118;-90
2024/01/02 11:13:23;;;;;;;0.85;0.60;;;8.80;99.90;;;;;;5038030;28;20033;-90
2024/01/02 11:16:01;;;;;;;0.55;0.55;;;8.90;99.90;;;;;;5044163;28;20111;-89
2024/01/02 11:18:31;;;;;;;3.22;0.88;;;8.80;99.90;;;;;;5041671;28;20022;-89
2024/01/02 11:21:14;;;;;;;0.87;0.70;;;8.90;99.90;;;;;;5038695;28;20021;-89
2024/01/02 11:23:42;;;;;;;1.65;0.88;;;8.90;99.90;;;;;;5038645;28;20028;-90
2024/01/02 11:26:30;;;;;;;1.73;0.90;;;8.90;99.90;;;;;;5045969;28;20033;-89
2024/01/02 11:29:00;;;;;;;2.30;0.65;;;8.90;99.90;;;;;;5046712;28;20094;-89
2024/01/02 11:31:29;;;;;;;0.98;0.73;;;8.90;99.90;;;;;;5045508;28;20179;-89
2024/01/02 11:34:14;;;;;;;0.55;0.55;;;8.80;99.90;;;;;;5050754;28;20037;-90
2024/01/02 11:37:04;;;;;;;1.65;0.80;;;8.90;99.90;;;;;;5043294;28;20094;-89
2024/01/02 11:39:40;;;;;;;1.27;0.80;;;8.90;99.90;;;;;;5043061;28;20725;-89
2024/01/02 11:42:24;;;;;;;1.45;0.80;;;8.90;99.90;;;;;;5039650;28;20037;-88
2024/01/02 11:45:08;;;;;;;1.05;0.68;;;8.90;99.90;;;;;;5036643;28;20033;-90
2024/01/02 11:48:07;;;;;;;2.33;0.95;;;8.90;99.90;;;;;;5042626;28;20036;-90
2024/01/02 11:50:52;;;;;;;0.77;0.55;;;8.90;99.90;;;;;;5038750;28;20078;-90
2024/01/02 11:53:39;;;;;;;0.50;0.50;;;8.90;99.90;;;;;;5045958;28;20021;-91
2024/01/02 11:56:07;;;;;;;4.97;0.65;;;8.90;99.90;;;;;;5043781;28;20506;-89
2024/01/02 11:59:03;;;;;;;1.00;0.60;;;8.90;99.90;;;;;;5046270;28;20040;-90
2024/01/02 12:01:53;;;;;;;0.50;0.50;;;8.90;99.90;;;;;;5046517;28;20052;-91
2024/01/02 12:04:43;;;;;;;1.13;0.50;;;8.90;99.90;;;;;;5044472;28;20025;-87
2024/01/02 12:07:38;;;;;;;0.63;0.60;;;8.90;99.90;;;;;;5037458;28;20072;-87
2024/01/02 12:10:05;;;;;;;1.30;0.60;;;8.90;99.90;;;;;;5034017;28;20088;-89
2024/01/02 12:12:40;;;;;;;0.60;0.60;;;9.00;99.90;;;;;;5043302;28;20096;-88
2024/01/02 12:15:47;;;;;;;0.77;0.68;;;9.00;99.90;;;;;;5049040;28;20030;-88
2024/01/02 12:18:17;;;;;;;1.27;0.70;;;8.90;99.90;;;;;;5040204;28;20079;-91
2024/01/02 12:20:51;;;;;;;1.70;1.15;;;9.00;99.90;;;;;;5055640;28;20035;-89
2024/01/02 12:23:18;;;;;;;2.65;0.70;;;8.90;99.90;;;;;;5047818;28;20021;-90
2024/01/02 12:25:45;;;;;;;0.60;0.60;;;8.90;99.90;;;;;;5048227;28;20029;-87
2024/01/02 12:28:11;;;;;;;1.45;0.63;;;9.00;99.90;;;;;;5053171;28;20261;-90
2024/01/02 12:30:47;;;;;;;0.75;0.60;;;9.00;99.90;;;;;;5051775;28;20036;-88
2024/01/02 12:33:31;;;;;;;0.93;0.70;;;9.00;99.90;;;;;;5041936;28;20032;-88
2024/01/02 12:36:32;;;;;;;0.75;0.73;;;9.00;99.90;;;;;;5045683;28;20033;-90
2024/01/02 12:39:05;;;;;;;1.45;0.60;;;9.00;99.90;;;;;;5053170;28;20083;-91
2024/01/02 12:41:37;;;;;;;0.60;0.60;;;9.00;99.90;;;;;;5041227;28;20055;-90
2024/01/02 12:44:06;;;;;;;0.50;0.50;;;9.00;99.90;;;;;;5050482;28;20028;-90
2024/01/02 12:46:34;;;;;;;2.25;1.08;;;9.00;99.90;;;;;;5038432;28;20025;-88
2024/01/02 12:49:07;;;;;;;1.08;0.93;;;9.00;99.90;;;;;;5045213;28;20032;-89
2024/01/02 12:51:36;;;;;;;2.35;0.93;;;9.00;99.90;;;;;;5046661;28;20060;-89
2024/01/02 12:54:03;;;;;;;1.42;0.82;;;9.00;99.90;;;;;;5037729;28;20029;-89
2024/01/02 12:56:33;;;;;;;0.73;0.70;;;9.00;99.90;;;;;;5039585;28;20041;-90
2024/01/02 12:59:06;;;;;;;0.75;0.75;;;9.00;99.90;;;;;;5046777;28;20026;-91
2024/01/02 13:01:32;;;;;;;3.92;0.70;;;9.00;99.90;;;;;;5052969;28;20025;-90
2024/01/02 13:03:59;;;;;;;0.55;0.55;;;9.00;99.90;;;;;;5050655;28;20037;-90
2024/01/02 13:06:28;;;;;;;0.40;0.40;;;9.00;99.90;;;;;;5039990;28;20028;-89
2024/01/02 13:08:54;;;;;;;1.55;0.60;;;9.00;99.90;;;;;;5046320;28;20017;-89